Time;durP1;ratioP1;P1;durP2;ratioP2;P2;SDS_P1;SDS_P2;PMS_P1;PMS_P2;Temp;Humidity;BMP_temperature;BMP_pressure;BME280_temperature;BME280_humidity;BME280_pressure;Samples;Min_cycle;Max_cycle;Signal;HPM_P1;HPM_P2
2022/02/03 00:05:17;;;;;;;41.80;24.58;;;5.40;99.90;;;;;;5134362;27;20049;-88
2022/02/03 00:22:01;;;;;;;41.42;23.65;;;5.60;99.90;;;;;;5130057;27;20112;-89
2022/02/03 00:26:02;;;;;;;38.95;22.92;;;5.60;99.90;;;;;;5122780;27;20130;-88
2022/02/03 00:28:50;;;;;;;39.00;22.98;;;5.60;99.90;;;;;;5127932;27;20097;-88
2022/02/03 00:31:44;;;;;;;41.28;24.17;;;5.60;99.90;;;;;;5105017;27;20058;-89
2022/02/03 00:35:09;;;;;;;42.03;23.90;;;5.50;99.90;;;;;;5115019;27;20178;-89
2022/02/03 00:50:25;;;;;;;39.95;24.35;;;5.50;99.90;;;;;;5130062;27;20046;-89
2022/02/03 00:53:14;;;;;;;40.03;23.83;;;5.50;99.90;;;;;;5117562;27;20237;-90
2022/02/03 00:56:12;;;;;;;36.42;22.70;;;5.50;99.90;;;;;;5105496;27;20130;-89
2022/02/03 00:59:23;;;;;;;39.15;23.50;;;5.50;99.90;;;;;;5108417;27;20467;-90
2022/02/03 01:02:29;;;;;;;36.85;21.98;;;5.50;99.90;;;;;;5107366;27;20048;-90
2022/02/03 01:05:29;;;;;;;35.78;21.33;;;5.50;99.90;;;;;;5127375;27;20043;-89
2022/02/03 01:08:46;;;;;;;36.40;21.42;;;5.50;99.90;;;;;;5115639;27;20069;-90
2022/02/03 01:11:41;;;;;;;39.13;22.02;;;5.50;99.90;;;;;;5118285;27;20142;-90
2022/02/03 01:14:44;;;;;;;36.88;21.05;;;5.50;99.90;;;;;;5111767;27;20039;-90
2022/02/03 01:17:42;;;;;;;38.28;21.65;;;5.50;99.90;;;;;;5128350;27;20118;-90
2022/02/03 01:21:18;;;;;;;39.38;23.60;;;5.50;99.90;;;;;;5127801;27;20138;-89
2022/02/03 01:37:38;;;;;;;40.50;22.73;;;5.50;99.90;;;;;;5125971;27;20058;-89
2022/02/03 01:45:03;;;;;;;37.55;22.38;;;5.40;99.90;;;;;;5049501;28;20146;-89
2022/02/03 01:54:06;;;;;;;40.53;22.55;;;5.40;99.90;;;;;;5040921;28;20045;-90
2022/02/03 01:57:18;;;;;;;34.15;21.27;;;5.30;99.90;;;;;;5036145;28;20049;-88
2022/02/03 02:00:25;;;;;;;;;;;;;;;;;;;;;
2022/02/03 02:03:38;;;;;;;34.75;20.90;;;5.30;99.90;;;;;;5124137;27;20116;-89
2022/02/03 02:07:48;;;;;;;;;;;;;;;;;;;;;
2022/02/03 02:42:07;;;;;;;29.27;17.80;;;5.40;99.90;;;;;;5044353;28;20052;-89
2022/02/03 02:48:57;;;;;;;;;;;;;;;;;;;;;
2022/02/03 02:52:11;;;;;;;37.30;21.45;;;5.40;99.90;;;;;;5057697;28;20061;-90
2022/02/03 03:03:00;;;;;;;42.13;23.50;;;5.50;99.90;;;;;;5067135;28;20107;-89
2022/02/03 03:38:13;;;;;;;;;;;;;;;;;;;;;
2022/02/03 03:42:14;;;;;;;;;;;;;;;;;;;;;
2022/02/03 03:46:15;;;;;;;;;;;;;;;;;;;;;
2022/02/03 03:49:42;;;;;;;;;;;;;;;;;;;;;
2022/02/03 03:53:58;;;;;;;;;;;;;;;;;;;;;
2022/02/03 04:33:04;;;;;;;;;;;;;;;;;;;;;
2022/02/03 05:14:07;;;;;;;;;;;;;;;;;;;;;
2022/02/03 05:46:44;;;;;;;49.10;23.70;;;5.00;99.90;;;;;;4974802;28;20041;-86
2022/02/03 06:21:38;;;;;;;51.90;27.48;;;5.10;99.90;;;;;;5074450;28;20062;-89
2022/02/03 06:24:35;;;;;;;54.15;28.35;;;5.10;99.90;;;;;;5056211;28;20373;-90
2022/02/03 06:27:26;;;;;;;51.75;28.65;;;5.20;99.90;;;;;;5096982;28;20058;-88
2022/02/03 06:30:19;;;;;;;52.92;28.08;;;5.10;99.90;;;;;;5122945;28;20032;-90
2022/02/03 06:33:07;;;;;;;52.15;28.65;;;5.10;99.90;;;;;;5116880;28;20039;-88
2022/02/03 06:35:54;;;;;;;52.28;29.52;;;5.10;99.90;;;;;;5113645;28;20098;-88
2022/02/03 06:38:42;;;;;;;57.90;29.50;;;5.10;99.90;;;;;;5117790;28;20046;-87
2022/02/03 06:41:35;;;;;;;56.72;29.88;;;5.10;99.90;;;;;;5106027;28;20078;-88
2022/02/03 06:44:43;;;;;;;60.55;30.70;;;5.10;99.90;;;;;;5105567;28;20140;-89
2022/02/03 06:47:36;;;;;;;54.15;29.95;;;5.10;99.90;;;;;;5119904;28;20039;-88
2022/02/03 06:50:51;;;;;;;56.50;29.65;;;5.10;99.90;;;;;;5105338;27;20208;-89
2022/02/03 06:53:41;;;;;;;54.85;29.35;;;5.10;99.90;;;;;;5132263;27;20038;-89
2022/02/03 06:57:08;;;;;;;;;;;;;;;;;;;;;
2022/02/03 07:00:16;;;;;;;52.47;27.98;;;5.10;99.90;;;;;;5131097;27;20043;-91
2022/02/03 07:03:38;;;;;;;47.97;26.48;;;5.20;99.90;;;;;;5132529;27;20044;-90
2022/02/03 07:06:56;;;;;;;46.95;27.00;;;5.20;99.90;;;;;;5148985;27;20051;-90
2022/02/03 07:23:17;;;;;;;;;;;;;;;;;;;;;
2022/02/03 07:35:06;;;;;;;34.50;20.55;;;5.50;99.90;;;;;;4935897;28;20472;-88
2022/02/03 07:38:08;;;;;;;29.88;19.05;;;5.50;99.90;;;;;;5047450;28;20143;-93
2022/02/03 07:49:33;;;;;;;24.40;16.85;;;5.70;99.90;;;;;;5031855;28;20044;-92
2022/02/03 07:52:20;;;;;;;23.65;16.83;;;5.70;99.90;;;;;;5077310;28;20104;-89
2022/02/03 08:13:44;;;;;;;;;;;;;;;;;;;;;
2022/02/03 11:10:56;;;;;;;3.53;2.40;;;9.10;99.90;;;;;;5956529;24;20136;-91
2022/02/03 14:14:59;;;;;;;9.25;2.83;;;9.40;99.90;;;;;;6246350;22;20020;-91
2022/02/03 14:18:21;;;;;;;3.90;2.80;;;9.40;99.90;;;;;;6244717;23;20028;-91
2022/02/03 14:27:22;;;;;;;5.07;3.45;;;9.20;99.90;;;;;;6244858;23;20115;-88
2022/02/03 14:30:15;;;;;;;4.53;2.67;;;9.10;99.90;;;;;;6246930;23;20035;-90
2022/02/03 14:33:05;;;;;;;4.40;3.60;;;9.00;99.90;;;;;;6232783;23;20040;-87
2022/02/03 14:35:52;;;;;;;3.63;3.10;;;8.80;99.90;;;;;;6244463;23;20023;-88
2022/02/03 14:59:18;;;;;;;4.60;3.45;;;8.40;99.90;;;;;;6151538;23;20385;-91
2022/02/03 15:02:08;;;;;;;5.47;3.85;;;8.30;99.90;;;;;;6152726;23;20026;-92
2022/02/03 15:05:04;;;;;;;7.00;4.07;;;8.30;99.90;;;;;;6152681;23;20088;-88
2022/02/03 15:07:57;;;;;;;4.28;3.58;;;8.20;99.90;;;;;;6153323;23;20025;-88
2022/02/03 15:11:04;;;;;;;8.07;3.58;;;8.10;99.90;;;;;;6154097;23;20083;-88
2022/02/03 15:13:51;;;;;;;5.20;3.10;;;8.10;99.90;;;;;;6153754;23;20021;-87
2022/02/03 15:16:40;;;;;;;4.97;3.33;;;8.10;99.90;;;;;;6151940;23;20149;-89
2022/02/03 15:19:50;;;;;;;6.07;3.60;;;8.00;99.90;;;;;;6152543;23;20026;-89
2022/02/03 15:22:47;;;;;;;6.95;4.32;;;7.90;99.90;;;;;;6152617;23;20073;-88
2022/02/03 15:25:35;;;;;;;6.50;4.35;;;7.90;99.90;;;;;;6131962;23;20037;-90
2022/02/03 15:28:25;;;;;;;8.25;5.80;;;7.80;99.90;;;;;;6156943;23;20097;-87
2022/02/03 15:31:12;;;;;;;7.13;4.25;;;7.80;99.90;;;;;;6132145;23;20034;-89
2022/02/03 15:34:16;;;;;;;6.13;4.85;;;7.80;99.90;;;;;;6134318;23;20052;-90
2022/02/03 15:37:11;;;;;;;7.43;5.07;;;7.70;99.90;;;;;;6155713;23;20025;-91
2022/02/03 15:40:04;;;;;;;5.50;4.65;;;7.70;99.90;;;;;;6132307;23;20370;-87
2022/02/03 15:43:25;;;;;;;5.28;4.50;;;7.70;99.90;;;;;;6154264;23;20107;-88
2022/02/03 15:46:18;;;;;;;4.65;4.00;;;7.60;99.90;;;;;;6133228;23;20097;-89
2022/02/03 16:21:00;;;;;;;7.00;5.75;;;6.70;99.90;;;;;;6036419;23;20111;-92
2022/02/03 16:51:20;;;;;;;10.88;7.55;;;6.50;99.90;;;;;;6119257;23;20250;-86
2022/02/03 16:53:52;;;;;;;10.40;7.82;;;6.50;99.90;;;;;;6159928;23;20443;-90
2022/02/03 16:56:48;;;;;;;10.88;7.55;;;6.40;99.90;;;;;;6133467;23;20053;-90
2022/02/03 16:59:51;;;;;;;11.63;7.88;;;6.30;99.90;;;;;;6132691;23;20030;-92
2022/02/03 17:03:02;;;;;;;10.70;8.50;;;6.30;99.90;;;;;;6135832;23;20026;-86
2022/02/03 17:05:51;;;;;;;12.27;8.63;;;6.30;99.90;;;;;;6132174;23;20482;-89
2022/02/03 17:08:41;;;;;;;14.35;9.57;;;6.20;99.90;;;;;;6134454;23;20029;-86
2022/02/03 17:11:31;;;;;;;16.50;9.80;;;6.20;99.90;;;;;;6154375;23;20036;-87
2022/02/03 17:14:23;;;;;;;18.40;8.82;;;6.10;99.90;;;;;;6132545;23;20041;-91
2022/02/03 17:17:15;;;;;;;;;;;6.10;99.90;;;;;;6154129;23;20053;-89
2022/02/03 17:20:08;;;;;;;14.25;9.73;;;6.10;99.90;;;;;;6133815;23;20014;-90
2022/02/03 17:23:05;;;;;;;17.23;11.65;;;6.10;99.90;;;;;;6134056;23;20080;-89
2022/02/03 17:29:19;;;;;;;15.43;10.70;;;6.10;99.90;;;;;;6154740;23;20040;-89
2022/02/03 17:44:49;;;;;;;17.08;10.73;;;6.10;99.90;;;;;;6132481;23;20321;-89
2022/02/03 18:10:10;;;;;;;14.57;10.80;;;5.90;99.90;;;;;;6153025;23;20093;-87
2022/02/03 18:30:22;;;;;;;26.63;15.07;;;5.80;99.90;;;;;;6154629;23;20029;-88
2022/02/03 19:26:07;;;;;;;16.25;11.75;;;5.50;99.90;;;;;;6149152;23;20053;-88
2022/02/03 20:07:50;;;;;;;24.27;15.40;;;5.20;99.90;;;;;;6034107;23;20031;-87
2022/02/03 20:44:06;;;;;;;19.70;12.90;;;5.00;99.90;;;;;;6137299;23;20566;-88
2022/02/03 20:46:54;;;;;;;20.58;13.18;;;5.00;99.90;;;;;;6213137;23;20033;-87
2022/02/03 20:50:23;;;;;;;;;;;;;;;;;;;;;
2022/02/03 20:53:48;;;;;;;20.45;13.77;;;5.00;99.90;;;;;;6164484;23;20285;-85
2022/02/03 20:56:48;;;;;;;22.17;13.40;;;4.90;99.90;;;;;;6212513;23;20020;-85
2022/02/03 21:02:53;;;;;;;24.58;15.25;;;4.90;99.90;;;;;;6214009;23;20060;-87
2022/02/03 21:05:44;;;;;;;23.48;14.57;;;4.90;99.90;;;;;;6194138;23;20135;-88
2022/02/03 21:08:34;;;;;;;30.58;17.00;;;4.80;99.90;;;;;;6213766;23;20340;-87
2022/02/03 21:11:23;;;;;;;29.23;16.98;;;4.80;99.90;;;;;;6195171;23;20043;-88
2022/02/03 21:14:11;;;;;;;25.77;15.98;;;4.70;99.90;;;;;;6213587;23;20021;-86
2022/02/03 21:16:59;;;;;;;27.85;15.52;;;4.70;99.90;;;;;;6216755;23;20025;-85
2022/02/03 21:20:14;;;;;;;25.23;16.02;;;4.70;99.90;;;;;;6216977;23;20020;-86
2022/02/03 21:23:03;;;;;;;30.27;18.38;;;4.60;99.90;;;;;;6197746;23;20036;-87
2022/02/03 21:25:56;;;;;;;27.83;16.98;;;4.60;99.90;;;;;;6219862;23;20087;-86
2022/02/03 21:28:47;;;;;;;30.13;16.58;;;4.50;99.90;;;;;;6229420;23;20035;-86
2022/02/03 21:31:37;;;;;;;28.20;16.92;;;4.40;99.90;;;;;;6210785;23;20024;-86
2022/02/03 21:34:26;;;;;;;30.25;17.40;;;4.30;99.90;;;;;;6231214;23;20059;-86
2022/02/03 21:37:14;;;;;;;25.80;16.02;;;4.30;99.90;;;;;;6239412;22;20016;-85
2022/02/03 21:40:04;;;;;;;30.58;18.20;;;4.30;99.90;;;;;;6214918;22;20035;-83
2022/02/03 21:42:51;;;;;;;33.50;19.17;;;4.20;99.90;;;;;;6215220;23;20151;-90
2022/02/03 21:45:39;;;;;;;34.33;18.75;;;4.20;99.90;;;;;;6223096;23;20029;-86
2022/02/03 21:48:26;;;;;;;35.80;21.13;;;4.10;99.90;;;;;;6202195;23;20100;-87
2022/02/03 21:51:15;;;;;;;40.95;22.45;;;4.10;99.90;;;;;;6226322;23;20025;-87
2022/02/03 21:54:03;;;;;;;40.22;21.17;;;4.00;99.90;;;;;;6200333;23;20048;-87
2022/02/03 21:56:56;;;;;;;41.63;23.83;;;4.00;99.90;;;;;;6196411;23;20025;-87
2022/02/03 21:59:44;;;;;;;41.92;21.88;;;4.00;99.90;;;;;;6214987;23;20092;-87
2022/02/03 22:02:46;;;;;;;44.72;24.20;;;4.00;99.90;;;;;;6195411;23;20068;-91
